sensor_id;sensor_type;location;lat;lon;timestamp;P1;durP1;ratioP1;P2;durP2;ratioP2
42854;SDS011;29183;48.038;14.346;2022-08-21T00:01:53;6.55;;;5.05;;
42854;SDS011;29183;48.038;14.346;2022-08-21T00:04:22;7.35;;;5.20;;
42854;SDS011;29183;48.038;14.346;2022-08-21T00:06:55;8.60;;;5.53;;
42854;SDS011;29183;48.038;14.346;2022-08-21T00:09:24;8.48;;;5.47;;
42854;SDS011;29183;48.038;14.346;2022-08-21T00:11:52;7.72;;;5.30;;
42854;SDS011;29183;48.038;14.346;2022-08-21T00:14:21;8.93;;;5.60;;
42854;SDS011;29183;48.038;14.346;2022-08-21T00:16:49;6.85;;;5.20;;
42854;SDS011;29183;48.038;14.346;2022-08-21T00:19:20;8.57;;;6.43;;
42854;SDS011;29183;48.038;14.346;2022-08-21T00:21:54;8.85;;;5.47;;
42854;SDS011;29183;48.038;14.346;2022-08-21T00:24:22;7.78;;;5.63;;
42854;SDS011;29183;48.038;14.346;2022-08-21T00:26:51;7.30;;;5.22;;
42854;SDS011;29183;48.038;14.346;2022-08-21T00:29:19;8.43;;;5.50;;
42854;SDS011;29183;48.038;14.346;2022-08-21T00:31:48;8.20;;;5.53;;
42854;SDS011;29183;48.038;14.346;2022-08-21T00:34:16;8.52;;;5.85;;
42854;SDS011;29183;48.038;14.346;2022-08-21T00:36:44;7.45;;;5.53;;
42854;SDS011;29183;48.038;14.346;2022-08-21T00:39:12;8.15;;;5.53;;
42854;SDS011;29183;48.038;14.346;2022-08-21T00:41:40;9.43;;;5.57;;
42854;SDS011;29183;48.038;14.346;2022-08-21T00:44:11;8.20;;;5.47;;
42854;SDS011;29183;48.038;14.346;2022-08-21T00:46:42;8.82;;;5.80;;
42854;SDS011;29183;48.038;14.346;2022-08-21T00:49:12;8.73;;;5.63;;
42854;SDS011;29183;48.038;14.346;2022-08-21T00:54:11;7.32;;;5.60;;
42854;SDS011;29183;48.038;14.346;2022-08-21T00:56:44;8.32;;;5.93;;
42854;SDS011;29183;48.038;14.346;2022-08-21T00:59:18;9.48;;;5.53;;
42854;SDS011;29183;48.038;14.346;2022-08-21T01:01:49;7.53;;;5.45;;
42854;SDS011;29183;48.038;14.346;2022-08-21T01:04:17;7.82;;;5.88;;
42854;SDS011;29183;48.038;14.346;2022-08-21T01:06:46;8.38;;;5.88;;
42854;SDS011;29183;48.038;14.346;2022-08-21T01:09:14;9.38;;;5.55;;
42854;SDS011;29183;48.038;14.346;2022-08-21T01:11:43;8.80;;;5.32;;
42854;SDS011;29183;48.038;14.346;2022-08-21T01:14:11;10.60;;;6.15;;
42854;SDS011;29183;48.038;14.346;2022-08-21T01:16:44;8.25;;;5.40;;
42854;SDS011;29183;48.038;14.346;2022-08-21T01:19:13;8.68;;;5.97;;
42854;SDS011;29183;48.038;14.346;2022-08-21T01:21:44;8.52;;;6.13;;
42854;SDS011;29183;48.038;14.346;2022-08-21T01:24:12;9.18;;;6.72;;
42854;SDS011;29183;48.038;14.346;2022-08-21T01:26:41;9.00;;;6.20;;
42854;SDS011;29183;48.038;14.346;2022-08-21T01:32:06;10.82;;;7.30;;
42854;SDS011;29183;48.038;14.346;2022-08-21T01:34:39;8.05;;;6.00;;
42854;SDS011;29183;48.038;14.346;2022-08-21T01:37:09;13.23;;;6.65;;
42854;SDS011;29183;48.038;14.346;2022-08-21T01:39:39;10.00;;;6.10;;
42854;SDS011;29183;48.038;14.346;2022-08-21T01:42:09;10.07;;;6.75;;
42854;SDS011;29183;48.038;14.346;2022-08-21T01:44:37;15.43;;;8.38;;
42854;SDS011;29183;48.038;14.346;2022-08-21T01:47:07;12.00;;;7.85;;
42854;SDS011;29183;48.038;14.346;2022-08-21T01:49:36;10.68;;;7.78;;
42854;SDS011;29183;48.038;14.346;2022-08-21T01:52:06;10.65;;;7.40;;
42854;SDS011;29183;48.038;14.346;2022-08-21T01:54:35;12.93;;;7.90;;
42854;SDS011;29183;48.038;14.346;2022-08-21T01:57:04;12.38;;;7.20;;
42854;SDS011;29183;48.038;14.346;2022-08-21T01:59:33;10.98;;;7.72;;
42854;SDS011;29183;48.038;14.346;2022-08-21T02:02:01;10.15;;;7.03;;
42854;SDS011;29183;48.038;14.346;2022-08-21T02:04:29;10.00;;;7.10;;
42854;SDS011;29183;48.038;14.346;2022-08-21T02:06:59;11.02;;;7.53;;
42854;SDS011;29183;48.038;14.346;2022-08-21T02:09:27;12.77;;;7.63;;
42854;SDS011;29183;48.038;14.346;2022-08-21T02:11:56;12.07;;;8.07;;
42854;SDS011;29183;48.038;14.346;2022-08-21T02:14:24;12.20;;;8.00;;
42854;SDS011;29183;48.038;14.346;2022-08-21T02:16:58;14.85;;;8.63;;
42854;SDS011;29183;48.038;14.346;2022-08-21T02:19:35;14.18;;;8.70;;
42854;SDS011;29183;48.038;14.346;2022-08-21T02:22:07;12.85;;;8.32;;
42854;SDS011;29183;48.038;14.346;2022-08-21T02:24:38;12.48;;;8.80;;
42854;SDS011;29183;48.038;14.346;2022-08-21T02:27:21;14.63;;;8.45;;
42854;SDS011;29183;48.038;14.346;2022-08-21T02:29:54;13.77;;;8.52;;
42854;SDS011;29183;48.038;14.346;2022-08-21T02:32:24;15.18;;;8.93;;
42854;SDS011;29183;48.038;14.346;2022-08-21T02:34:53;14.65;;;9.05;;
42854;SDS011;29183;48.038;14.346;2022-08-21T02:37:22;16.50;;;10.00;;
42854;SDS011;29183;48.038;14.346;2022-08-21T02:39:51;13.32;;;8.55;;
42854;SDS011;29183;48.038;14.346;2022-08-21T02:42:19;14.43;;;8.30;;
42854;SDS011;29183;48.038;14.346;2022-08-21T02:44:47;16.80;;;9.40;;
42854;SDS011;29183;48.038;14.346;2022-08-21T02:47:15;13.23;;;9.05;;
42854;SDS011;29183;48.038;14.346;2022-08-21T02:49:44;13.88;;;9.32;;
42854;SDS011;29183;48.038;14.346;2022-08-21T02:52:12;13.55;;;8.73;;
42854;SDS011;29183;48.038;14.346;2022-08-21T02:54:40;11.25;;;7.70;;
42854;SDS011;29183;48.038;14.346;2022-08-21T02:57:08;12.18;;;7.93;;
42854;SDS011;29183;48.038;14.346;2022-08-21T02:59:36;11.35;;;7.60;;
42854;SDS011;29183;48.038;14.346;2022-08-21T03:02:05;12.50;;;8.00;;
42854;SDS011;29183;48.038;14.346;2022-08-21T03:04:33;12.35;;;7.53;;
42854;SDS011;29183;48.038;14.346;2022-08-21T03:07:01;10.63;;;7.43;;
42854;SDS011;29183;48.038;14.346;2022-08-21T03:09:36;16.33;;;7.50;;
42854;SDS011;29183;48.038;14.346;2022-08-21T03:12:16;14.63;;;8.23;;
42854;SDS011;29183;48.038;14.346;2022-08-21T03:14:44;12.90;;;8.10;;
42854;SDS011;29183;48.038;14.346;2022-08-21T03:17:12;11.75;;;7.43;;
42854;SDS011;29183;48.038;14.346;2022-08-21T03:19:40;11.88;;;7.38;;
42854;SDS011;29183;48.038;14.346;2022-08-21T03:22:08;12.25;;;8.20;;
42854;SDS011;29183;48.038;14.346;2022-08-21T03:27:37;13.57;;;8.27;;
42854;SDS011;29183;48.038;14.346;2022-08-21T03:30:09;11.02;;;7.57;;
42854;SDS011;29183;48.038;14.346;2022-08-21T03:32:38;13.15;;;8.63;;
42854;SDS011;29183;48.038;14.346;2022-08-21T03:35:08;14.30;;;7.85;;
42854;SDS011;29183;48.038;14.346;2022-08-21T03:37:37;16.95;;;9.13;;
42854;SDS011;29183;48.038;14.346;2022-08-21T03:40:05;16.75;;;8.23;;
42854;SDS011;29183;48.038;14.346;2022-08-21T03:42:36;12.07;;;7.73;;
42854;SDS011;29183;48.038;14.346;2022-08-21T03:45:04;11.68;;;7.75;;
42854;SDS011;29183;48.038;14.346;2022-08-21T03:47:34;15.02;;;8.82;;
42854;SDS011;29183;48.038;14.346;2022-08-21T03:50:03;12.70;;;7.88;;
42854;SDS011;29183;48.038;14.346;2022-08-21T03:52:32;11.98;;;8.05;;
42854;SDS011;29183;48.038;14.346;2022-08-21T03:55:01;13.25;;;8.20;;
42854;SDS011;29183;48.038;14.346;2022-08-21T03:57:29;14.27;;;7.57;;
42854;SDS011;29183;48.038;14.346;2022-08-21T03:59:57;11.35;;;7.40;;
42854;SDS011;29183;48.038;14.346;2022-08-21T04:02:25;12.75;;;8.00;;
42854;SDS011;29183;48.038;14.346;2022-08-21T04:04:53;13.57;;;8.05;;
42854;SDS011;29183;48.038;14.346;2022-08-21T04:07:21;13.65;;;7.93;;
42854;SDS011;29183;48.038;14.346;2022-08-21T04:09:50;14.25;;;8.00;;
42854;SDS011;29183;48.038;14.346;2022-08-21T04:12:18;12.13;;;7.57;;
42854;SDS011;29183;48.038;14.346;2022-08-21T04:14:47;12.52;;;7.72;;
42854;SDS011;29183;48.038;14.346;2022-08-21T04:17:15;9.98;;;7.50;;
42854;SDS011;29183;48.038;14.346;2022-08-21T04:19:43;13.07;;;7.03;;
42854;SDS011;29183;48.038;14.346;2022-08-21T04:22:18;12.57;;;7.28;;
42854;SDS011;29183;48.038;14.346;2022-08-21T04:24:46;12.77;;;7.75;;
42854;SDS011;29183;48.038;14.346;2022-08-21T04:27:14;11.85;;;7.82;;
42854;SDS011;29183;48.038;14.346;2022-08-21T04:29:42;13.43;;;7.70;;
42854;SDS011;29183;48.038;14.346;2022-08-21T04:32:11;11.45;;;7.88;;
42854;SDS011;29183;48.038;14.346;2022-08-21T04:34:39;12.77;;;7.95;;
42854;SDS011;29183;48.038;14.346;2022-08-21T04:37:07;12.55;;;7.80;;
42854;SDS011;29183;48.038;14.346;2022-08-21T04:39:35;9.50;;;7.10;;
42854;SDS011;29183;48.038;14.346;2022-08-21T04:42:03;10.35;;;7.22;;
42854;SDS011;29183;48.038;14.346;2022-08-21T04:44:34;10.97;;;7.17;;
42854;SDS011;29183;48.038;14.346;2022-08-21T04:47:02;10.73;;;7.25;;
42854;SDS011;29183;48.038;14.346;2022-08-21T04:49:30;12.93;;;7.35;;
42854;SDS011;29183;48.038;14.346;2022-08-21T04:51:58;10.57;;;7.10;;
42854;SDS011;29183;48.038;14.346;2022-08-21T04:54:27;12.07;;;8.18;;
42854;SDS011;29183;48.038;14.346;2022-08-21T04:56:56;11.00;;;7.40;;
42854;SDS011;29183;48.038;14.346;2022-08-21T04:59:31;11.50;;;6.97;;
42854;SDS011;29183;48.038;14.346;2022-08-21T05:02:09;11.25;;;7.32;;
42854;SDS011;29183;48.038;14.346;2022-08-21T05:04:39;10.65;;;6.70;;
42854;SDS011;29183;48.038;14.346;2022-08-21T05:07:12;12.13;;;6.82;;
42854;SDS011;29183;48.038;14.346;2022-08-21T05:10:05;10.98;;;6.22;;
42854;SDS011;29183;48.038;14.346;2022-08-21T05:12:37;10.30;;;6.65;;
42854;SDS011;29183;48.038;14.346;2022-08-21T05:15:06;9.25;;;7.22;;
42854;SDS011;29183;48.038;14.346;2022-08-21T05:17:39;10.70;;;6.93;;
42854;SDS011;29183;48.038;14.346;2022-08-21T05:20:08;11.30;;;7.35;;
42854;SDS011;29183;48.038;14.346;2022-08-21T05:22:37;12.75;;;7.82;;
42854;SDS011;29183;48.038;14.346;2022-08-21T05:25:06;12.30;;;8.18;;
42854;SDS011;29183;48.038;14.346;2022-08-21T05:27:36;12.93;;;8.07;;
42854;SDS011;29183;48.038;14.346;2022-08-21T05:30:06;11.70;;;7.57;;
42854;SDS011;29183;48.038;14.346;2022-08-21T05:32:35;11.17;;;7.27;;
42854;SDS011;29183;48.038;14.346;2022-08-21T05:35:05;12.25;;;7.60;;
42854;SDS011;29183;48.038;14.346;2022-08-21T05:37:34;11.52;;;7.82;;
42854;SDS011;29183;48.038;14.346;2022-08-21T05:40:03;11.00;;;7.13;;
42854;SDS011;29183;48.038;14.346;2022-08-21T05:42:48;12.60;;;7.95;;
42854;SDS011;29183;48.038;14.346;2022-08-21T05:45:24;12.88;;;8.82;;
42854;SDS011;29183;48.038;14.346;2022-08-21T05:48:14;12.70;;;8.07;;
42854;SDS011;29183;48.038;14.346;2022-08-21T05:50:44;13.23;;;8.00;;
42854;SDS011;29183;48.038;14.346;2022-08-21T05:53:14;14.52;;;7.90;;
42854;SDS011;29183;48.038;14.346;2022-08-21T05:55:44;14.15;;;8.85;;
42854;SDS011;29183;48.038;14.346;2022-08-21T05:58:14;17.38;;;8.77;;
42854;SDS011;29183;48.038;14.346;2022-08-21T06:00:45;13.65;;;8.50;;
42854;SDS011;29183;48.038;14.346;2022-08-21T06:03:16;14.63;;;9.37;;
42854;SDS011;29183;48.038;14.346;2022-08-21T06:05:46;14.75;;;7.53;;
42854;SDS011;29183;48.038;14.346;2022-08-21T06:08:16;12.80;;;8.02;;
42854;SDS011;29183;48.038;14.346;2022-08-21T06:10:45;13.07;;;8.02;;
42854;SDS011;29183;48.038;14.346;2022-08-21T06:13:15;12.50;;;7.63;;
42854;SDS011;29183;48.038;14.346;2022-08-21T06:15:44;13.40;;;8.52;;
42854;SDS011;29183;48.038;14.346;2022-08-21T06:18:13;11.38;;;7.88;;
42854;SDS011;29183;48.038;14.346;2022-08-21T06:20:42;12.82;;;7.32;;
42854;SDS011;29183;48.038;14.346;2022-08-21T06:23:10;13.73;;;8.10;;
42854;SDS011;29183;48.038;14.346;2022-08-21T06:25:38;14.68;;;8.30;;
42854;SDS011;29183;48.038;14.346;2022-08-21T06:28:08;13.13;;;8.10;;
42854;SDS011;29183;48.038;14.346;2022-08-21T06:30:38;18.10;;;9.70;;
42854;SDS011;29183;48.038;14.346;2022-08-21T06:33:06;17.05;;;10.02;;
42854;SDS011;29183;48.038;14.346;2022-08-21T06:35:35;15.55;;;9.18;;
42854;SDS011;29183;48.038;14.346;2022-08-21T06:38:06;18.73;;;10.07;;
42854;SDS011;29183;48.038;14.346;2022-08-21T06:40:35;21.15;;;11.25;;
42854;SDS011;29183;48.038;14.346;2022-08-21T06:43:13;20.02;;;11.27;;
42854;SDS011;29183;48.038;14.346;2022-08-21T06:45:43;16.35;;;9.50;;
42854;SDS011;29183;48.038;14.346;2022-08-21T06:48:12;19.15;;;10.38;;
42854;SDS011;29183;48.038;14.346;2022-08-21T06:50:45;22.48;;;10.98;;
42854;SDS011;29183;48.038;14.346;2022-08-21T06:53:15;20.58;;;10.13;;
42854;SDS011;29183;48.038;14.346;2022-08-21T06:55:46;22.50;;;10.90;;
42854;SDS011;29183;48.038;14.346;2022-08-21T06:58:15;20.63;;;11.27;;
42854;SDS011;29183;48.038;14.346;2022-08-21T07:00:45;23.50;;;10.75;;
42854;SDS011;29183;48.038;14.346;2022-08-21T07:05:51;24.00;;;10.88;;
42854;SDS011;29183;48.038;14.346;2022-08-21T07:08:20;20.38;;;10.57;;
42854;SDS011;29183;48.038;14.346;2022-08-21T07:10:48;23.02;;;11.88;;
42854;SDS011;29183;48.038;14.346;2022-08-21T07:13:17;33.55;;;20.02;;
42854;SDS011;29183;48.038;14.346;2022-08-21T07:15:45;32.42;;;17.42;;
42854;SDS011;29183;48.038;14.346;2022-08-21T07:18:14;30.85;;;17.92;;
42854;SDS011;29183;48.038;14.346;2022-08-21T07:20:42;31.38;;;15.68;;
42854;SDS011;29183;48.038;14.346;2022-08-21T07:23:20;30.30;;;16.38;;
42854;SDS011;29183;48.038;14.346;2022-08-21T07:25:52;35.15;;;15.38;;
42854;SDS011;29183;48.038;14.346;2022-08-21T07:28:21;29.60;;;14.77;;
42854;SDS011;29183;48.038;14.346;2022-08-21T07:30:50;31.58;;;14.85;;
42854;SDS011;29183;48.038;14.346;2022-08-21T07:33:21;28.83;;;14.05;;
42854;SDS011;29183;48.038;14.346;2022-08-21T07:35:50;31.00;;;14.23;;
42854;SDS011;29183;48.038;14.346;2022-08-21T07:38:18;26.52;;;13.10;;
42854;SDS011;29183;48.038;14.346;2022-08-21T07:40:47;29.33;;;14.63;;
42854;SDS011;29183;48.038;14.346;2022-08-21T07:43:18;29.00;;;14.68;;
42854;SDS011;29183;48.038;14.346;2022-08-21T07:45:46;28.65;;;14.73;;
42854;SDS011;29183;48.038;14.346;2022-08-21T07:48:16;31.33;;;14.52;;
42854;SDS011;29183;48.038;14.346;2022-08-21T07:50:45;29.27;;;14.50;;
42854;SDS011;29183;48.038;14.346;2022-08-21T07:53:13;35.83;;;15.43;;
42854;SDS011;29183;48.038;14.346;2022-08-21T07:55:42;33.50;;;16.63;;
42854;SDS011;29183;48.038;14.346;2022-08-21T07:58:10;32.83;;;15.32;;
42854;SDS011;29183;48.038;14.346;2022-08-21T08:00:39;30.25;;;14.63;;
42854;SDS011;29183;48.038;14.346;2022-08-21T08:03:08;28.33;;;14.40;;
42854;SDS011;29183;48.038;14.346;2022-08-21T08:05:36;27.85;;;13.90;;
42854;SDS011;29183;48.038;14.346;2022-08-21T08:08:06;27.83;;;14.70;;
42854;SDS011;29183;48.038;14.346;2022-08-21T08:10:34;28.40;;;14.93;;
42854;SDS011;29183;48.038;14.346;2022-08-21T08:13:03;29.42;;;14.70;;
42854;SDS011;29183;48.038;14.346;2022-08-21T08:15:36;29.60;;;15.95;;
42854;SDS011;29183;48.038;14.346;2022-08-21T08:18:04;25.42;;;14.13;;
42854;SDS011;29183;48.038;14.346;2022-08-21T08:20:32;24.80;;;13.80;;
42854;SDS011;29183;48.038;14.346;2022-08-21T08:23:00;27.50;;;14.15;;
42854;SDS011;29183;48.038;14.346;2022-08-21T08:25:29;26.55;;;14.63;;
42854;SDS011;29183;48.038;14.346;2022-08-21T08:28:02;24.73;;;14.60;;
42854;SDS011;29183;48.038;14.346;2022-08-21T08:30:43;30.07;;;16.13;;
42854;SDS011;29183;48.038;14.346;2022-08-21T08:33:12;27.63;;;13.98;;
42854;SDS011;29183;48.038;14.346;2022-08-21T08:35:46;31.02;;;16.02;;
42854;SDS011;29183;48.038;14.346;2022-08-21T08:38:16;22.10;;;13.55;;
42854;SDS011;29183;48.038;14.346;2022-08-21T08:43:29;23.08;;;13.48;;
42854;SDS011;29183;48.038;14.346;2022-08-21T08:46:01;22.52;;;12.77;;
42854;SDS011;29183;48.038;14.346;2022-08-21T08:54:21;17.98;;;11.15;;
42854;SDS011;29183;48.038;14.346;2022-08-21T08:56:59;18.20;;;10.98;;
42854;SDS011;29183;48.038;14.346;2022-08-21T08:59:35;18.58;;;11.93;;
42854;SDS011;29183;48.038;14.346;2022-08-21T09:02:11;17.45;;;10.32;;
42854;SDS011;29183;48.038;14.346;2022-08-21T09:04:39;20.33;;;11.40;;
42854;SDS011;29183;48.038;14.346;2022-08-21T09:10:16;19.25;;;10.35;;
42854;SDS011;29183;48.038;14.346;2022-08-21T09:18:30;15.60;;;10.10;;
42854;SDS011;29183;48.038;14.346;2022-08-21T09:21:08;18.15;;;10.75;;
42854;SDS011;29183;48.038;14.346;2022-08-21T09:24:00;19.67;;;10.57;;
42854;SDS011;29183;48.038;14.346;2022-08-21T09:26:54;17.15;;;10.80;;
42854;SDS011;29183;48.038;14.346;2022-08-21T09:29:30;16.25;;;10.45;;
42854;SDS011;29183;48.038;14.346;2022-08-21T09:32:00;14.55;;;10.02;;
42854;SDS011;29183;48.038;14.346;2022-08-21T09:34:30;18.02;;;10.40;;
42854;SDS011;29183;48.038;14.346;2022-08-21T09:36:58;18.20;;;10.55;;
42854;SDS011;29183;48.038;14.346;2022-08-21T09:39:28;15.85;;;10.18;;
42854;SDS011;29183;48.038;14.346;2022-08-21T09:42:07;15.65;;;10.25;;
42854;SDS011;29183;48.038;14.346;2022-08-21T09:44:38;18.48;;;10.88;;
42854;SDS011;29183;48.038;14.346;2022-08-21T09:47:11;16.77;;;10.02;;
42854;SDS011;29183;48.038;14.346;2022-08-21T09:49:42;20.30;;;9.77;;
42854;SDS011;29183;48.038;14.346;2022-08-21T09:52:16;18.08;;;11.50;;
42854;SDS011;29183;48.038;14.346;2022-08-21T09:54:54;24.92;;;11.80;;
42854;SDS011;29183;48.038;14.346;2022-08-21T09:57:24;17.45;;;11.13;;
42854;SDS011;29183;48.038;14.346;2022-08-21T10:00:48;24.48;;;11.82;;
42854;SDS011;29183;48.038;14.346;2022-08-21T10:05:39;19.48;;;11.57;;
42854;SDS011;29183;48.038;14.346;2022-08-21T10:08:18;18.45;;;12.00;;
42854;SDS011;29183;48.038;14.346;2022-08-21T10:10:54;19.25;;;11.70;;
42854;SDS011;29183;48.038;14.346;2022-08-21T10:13:27;19.27;;;10.95;;
42854;SDS011;29183;48.038;14.346;2022-08-21T10:16:44;18.38;;;11.90;;
42854;SDS011;29183;48.038;14.346;2022-08-21T10:22:08;16.20;;;10.63;;
42854;SDS011;29183;48.038;14.346;2022-08-21T10:30:15;17.73;;;10.80;;
42854;SDS011;29183;48.038;14.346;2022-08-21T10:41:35;23.85;;;14.55;;
42854;SDS011;29183;48.038;14.346;2022-08-21T10:49:34;17.85;;;11.18;;
42854;SDS011;29183;48.038;14.346;2022-08-21T10:52:22;18.35;;;11.70;;
42854;SDS011;29183;48.038;14.346;2022-08-21T11:00:49;19.10;;;11.88;;
42854;SDS011;29183;48.038;14.346;2022-08-21T11:03:24;20.02;;;11.63;;
42854;SDS011;29183;48.038;14.346;2022-08-21T11:06:02;17.73;;;12.05;;
42854;SDS011;29183;48.038;14.346;2022-08-21T11:08:38;21.85;;;11.88;;
42854;SDS011;29183;48.038;14.346;2022-08-21T11:11:18;21.30;;;12.30;;
42854;SDS011;29183;48.038;14.346;2022-08-21T11:14:02;19.17;;;12.93;;
42854;SDS011;29183;48.038;14.346;2022-08-21T11:16:43;20.30;;;12.43;;
42854;SDS011;29183;48.038;14.346;2022-08-21T13:11:10;10.27;;;8.63;;
42854;SDS011;29183;48.038;14.346;2022-08-21T13:13:41;10.30;;;7.38;;
42854;SDS011;29183;48.038;14.346;2022-08-21T13:16:18;11.02;;;7.63;;
42854;SDS011;29183;48.038;14.346;2022-08-21T13:21:31;11.98;;;8.73;;
42854;SDS011;29183;48.038;14.346;2022-08-21T13:26:56;14.30;;;9.30;;
42854;SDS011;29183;48.038;14.346;2022-08-21T13:29:29;10.00;;;7.13;;
42854;SDS011;29183;48.038;14.346;2022-08-21T13:31:59;9.73;;;7.25;;
42854;SDS011;29183;48.038;14.346;2022-08-21T13:34:34;11.63;;;7.32;;
42854;SDS011;29183;48.038;14.346;2022-08-21T13:37:04;10.60;;;6.70;;
42854;SDS011;29183;48.038;14.346;2022-08-21T13:39:32;8.32;;;6.47;;
42854;SDS011;29183;48.038;14.346;2022-08-21T13:47:00;11.15;;;6.97;;
42854;SDS011;29183;48.038;14.346;2022-08-21T13:49:36;9.02;;;7.30;;
42854;SDS011;29183;48.038;14.346;2022-08-21T13:52:05;11.25;;;8.20;;
42854;SDS011;29183;48.038;14.346;2022-08-21T13:54:41;8.65;;;7.20;;
42854;SDS011;29183;48.038;14.346;2022-08-21T13:57:18;10.55;;;7.00;;
42854;SDS011;29183;48.038;14.346;2022-08-21T13:59:46;8.82;;;7.25;;
42854;SDS011;29183;48.038;14.346;2022-08-21T14:02:21;9.93;;;6.78;;
42854;SDS011;29183;48.038;14.346;2022-08-21T14:07:40;10.75;;;7.75;;
42854;SDS011;29183;48.038;14.346;2022-08-21T14:10:20;10.48;;;7.40;;
42854;SDS011;29183;48.038;14.346;2022-08-21T14:12:55;11.57;;;8.27;;
42854;SDS011;29183;48.038;14.346;2022-08-21T14:15:25;10.73;;;8.07;;
42854;SDS011;29183;48.038;14.346;2022-08-21T14:17:54;12.38;;;8.57;;
42854;SDS011;29183;48.038;14.346;2022-08-21T14:20:27;11.75;;;8.57;;
42854;SDS011;29183;48.038;14.346;2022-08-21T14:22:55;13.90;;;8.90;;
42854;SDS011;29183;48.038;14.346;2022-08-21T14:27:56;11.70;;;8.38;;
42854;SDS011;29183;48.038;14.346;2022-08-21T14:30:36;10.07;;;7.05;;
42854;SDS011;29183;48.038;14.346;2022-08-21T14:33:07;13.05;;;8.90;;
42854;SDS011;29183;48.038;14.346;2022-08-21T14:35:36;12.90;;;8.52;;
42854;SDS011;29183;48.038;14.346;2022-08-21T14:38:12;12.45;;;8.35;;
42854;SDS011;29183;48.038;14.346;2022-08-21T14:40:41;11.38;;;8.52;;
42854;SDS011;29183;48.038;14.346;2022-08-21T14:43:09;12.55;;;7.90;;
42854;SDS011;29183;48.038;14.346;2022-08-21T14:45:37;12.52;;;7.78;;
42854;SDS011;29183;48.038;14.346;2022-08-21T14:48:08;11.00;;;7.13;;
42854;SDS011;29183;48.038;14.346;2022-08-21T14:50:36;8.63;;;6.35;;
42854;SDS011;29183;48.038;14.346;2022-08-21T14:53:04;7.78;;;6.20;;
42854;SDS011;29183;48.038;14.346;2022-08-21T14:55:37;7.65;;;6.40;;
42854;SDS011;29183;48.038;14.346;2022-08-21T14:58:24;9.27;;;5.60;;
42854;SDS011;29183;48.038;14.346;2022-08-21T15:00:53;7.20;;;5.57;;
42854;SDS011;29183;48.038;14.346;2022-08-21T15:03:21;7.03;;;5.53;;
42854;SDS011;29183;48.038;14.346;2022-08-21T15:05:50;6.03;;;4.82;;
42854;SDS011;29183;48.038;14.346;2022-08-21T15:08:18;7.55;;;5.28;;
42854;SDS011;29183;48.038;14.346;2022-08-21T15:10:47;6.43;;;4.97;;
42854;SDS011;29183;48.038;14.346;2022-08-21T15:13:35;9.32;;;5.85;;
42854;SDS011;29183;48.038;14.346;2022-08-21T15:16:03;6.30;;;5.55;;
42854;SDS011;29183;48.038;14.346;2022-08-21T15:18:31;8.38;;;5.70;;
42854;SDS011;29183;48.038;14.346;2022-08-21T15:20:59;7.47;;;4.95;;
42854;SDS011;29183;48.038;14.346;2022-08-21T15:23:27;6.10;;;4.70;;
42854;SDS011;29183;48.038;14.346;2022-08-21T15:25:55;5.30;;;4.80;;
42854;SDS011;29183;48.038;14.346;2022-08-21T15:28:27;6.40;;;4.55;;
42854;SDS011;29183;48.038;14.346;2022-08-21T15:30:57;7.45;;;5.00;;
42854;SDS011;29183;48.038;14.346;2022-08-21T15:33:27;7.85;;;5.88;;
42854;SDS011;29183;48.038;14.346;2022-08-21T15:35:54;7.88;;;6.38;;
42854;SDS011;29183;48.038;14.346;2022-08-21T15:38:23;10.50;;;7.53;;
42854;SDS011;29183;48.038;14.346;2022-08-21T15:40:51;7.35;;;5.45;;
42854;SDS011;29183;48.038;14.346;2022-08-21T15:43:22;6.68;;;5.00;;
42854;SDS011;29183;48.038;14.346;2022-08-21T15:45:56;7.47;;;5.47;;
42854;SDS011;29183;48.038;14.346;2022-08-21T15:48:25;11.77;;;5.68;;
42854;SDS011;29183;48.038;14.346;2022-08-21T15:50:54;6.03;;;4.72;;
42854;SDS011;29183;48.038;14.346;2022-08-21T15:53:22;7.93;;;5.07;;
42854;SDS011;29183;48.038;14.346;2022-08-21T15:55:50;7.68;;;5.10;;
42854;SDS011;29183;48.038;14.346;2022-08-21T15:58:18;8.35;;;5.68;;
42854;SDS011;29183;48.038;14.346;2022-08-21T16:00:51;5.43;;;4.75;;
42854;SDS011;29183;48.038;14.346;2022-08-21T16:03:19;6.88;;;5.18;;
42854;SDS011;29183;48.038;14.346;2022-08-21T16:05:49;5.80;;;4.60;;
42854;SDS011;29183;48.038;14.346;2022-08-21T16:08:20;9.60;;;5.23;;
42854;SDS011;29183;48.038;14.346;2022-08-21T16:10:48;6.57;;;4.90;;
42854;SDS011;29183;48.038;14.346;2022-08-21T16:13:24;6.97;;;5.10;;
42854;SDS011;29183;48.038;14.346;2022-08-21T16:15:53;6.97;;;4.97;;
42854;SDS011;29183;48.038;14.346;2022-08-21T16:18:21;6.63;;;4.97;;
42854;SDS011;29183;48.038;14.346;2022-08-21T16:20:49;7.55;;;5.20;;
42854;SDS011;29183;48.038;14.346;2022-08-21T16:23:17;6.95;;;5.00;;
42854;SDS011;29183;48.038;14.346;2022-08-21T16:25:45;8.48;;;5.30;;
42854;SDS011;29183;48.038;14.346;2022-08-21T16:28:14;6.22;;;4.70;;
42854;SDS011;29183;48.038;14.346;2022-08-21T16:30:45;6.43;;;4.88;;
42854;SDS011;29183;48.038;14.346;2022-08-21T16:35:47;6.65;;;4.72;;
42854;SDS011;29183;48.038;14.346;2022-08-21T16:38:15;5.53;;;4.68;;
42854;SDS011;29183;48.038;14.346;2022-08-21T16:40:43;5.07;;;4.43;;
42854;SDS011;29183;48.038;14.346;2022-08-21T16:43:11;7.32;;;5.32;;
42854;SDS011;29183;48.038;14.346;2022-08-21T16:45:39;6.38;;;4.93;;
42854;SDS011;29183;48.038;14.346;2022-08-21T16:48:08;6.95;;;5.00;;
42854;SDS011;29183;48.038;14.346;2022-08-21T16:50:36;10.25;;;5.15;;
42854;SDS011;29183;48.038;14.346;2022-08-21T16:53:04;8.05;;;6.05;;
42854;SDS011;29183;48.038;14.346;2022-08-21T16:55:34;7.00;;;5.32;;
42854;SDS011;29183;48.038;14.346;2022-08-21T16:58:07;8.65;;;5.20;;
42854;SDS011;29183;48.038;14.346;2022-08-21T17:00:36;8.40;;;5.30;;
42854;SDS011;29183;48.038;14.346;2022-08-21T17:03:04;6.50;;;4.93;;
42854;SDS011;29183;48.038;14.346;2022-08-21T17:05:32;7.90;;;5.78;;
42854;SDS011;29183;48.038;14.346;2022-08-21T17:08:00;9.77;;;8.18;;
42854;SDS011;29183;48.038;14.346;2022-08-21T17:10:28;9.90;;;7.82;;
42854;SDS011;29183;48.038;14.346;2022-08-21T17:12:56;8.70;;;6.13;;
42854;SDS011;29183;48.038;14.346;2022-08-21T17:15:28;9.48;;;7.10;;
42854;SDS011;29183;48.038;14.346;2022-08-21T17:17:57;11.10;;;9.07;;
42854;SDS011;29183;48.038;14.346;2022-08-21T17:20:26;9.35;;;7.70;;
42854;SDS011;29183;48.038;14.346;2022-08-21T17:22:54;10.70;;;7.40;;
42854;SDS011;29183;48.038;14.346;2022-08-21T17:25:22;9.32;;;7.35;;
42854;SDS011;29183;48.038;14.346;2022-08-21T17:27:50;10.50;;;6.78;;
42854;SDS011;29183;48.038;14.346;2022-08-21T17:30:20;7.43;;;5.95;;
42854;SDS011;29183;48.038;14.346;2022-08-21T17:32:49;8.07;;;5.55;;
42854;SDS011;29183;48.038;14.346;2022-08-21T17:35:17;9.65;;;5.97;;
42854;SDS011;29183;48.038;14.346;2022-08-21T17:37:45;7.82;;;4.97;;
42854;SDS011;29183;48.038;14.346;2022-08-21T17:40:14;10.13;;;6.03;;
42854;SDS011;29183;48.038;14.346;2022-08-21T17:42:43;7.25;;;5.22;;
42854;SDS011;29183;48.038;14.346;2022-08-21T17:45:12;7.82;;;5.60;;
42854;SDS011;29183;48.038;14.346;2022-08-21T17:47:40;7.65;;;5.82;;
42854;SDS011;29183;48.038;14.346;2022-08-21T17:50:12;9.55;;;5.57;;
42854;SDS011;29183;48.038;14.346;2022-08-21T17:52:44;8.57;;;6.00;;
42854;SDS011;29183;48.038;14.346;2022-08-21T17:55:13;7.55;;;5.75;;